sensor_id;sensor_type;location;lat;lon;timestamp;P1;durP1;ratioP1;P2;durP2;ratioP2
33840;SDS011;20142;28.494;-16.312;2023-02-01T00:02:55;6.18;;;0.73;;
33840;SDS011;20142;28.494;-16.312;2023-02-01T00:07:57;6.20;;;0.90;;
33840;SDS011;20142;28.494;-16.312;2023-02-01T00:12:58;5.43;;;1.23;;
33840;SDS011;20142;28.494;-16.312;2023-02-01T00:18:00;3.83;;;0.75;;
33840;SDS011;20142;28.494;-16.312;2023-02-01T00:23:02;2.60;;;0.60;;
33840;SDS011;20142;28.494;-16.312;2023-02-01T00:28:04;3.92;;;0.68;;
33840;SDS011;20142;28.494;-16.312;2023-02-01T00:33:05;3.60;;;0.52;;
33840;SDS011;20142;28.494;-16.312;2023-02-01T00:38:07;7.30;;;0.70;;
33840;SDS011;20142;28.494;-16.312;2023-02-01T00:43:09;9.40;;;0.77;;
33840;SDS011;20142;28.494;-16.312;2023-02-01T00:48:10;2.95;;;0.40;;
33840;SDS011;20142;28.494;-16.312;2023-02-01T00:53:12;6.03;;;0.65;;
33840;SDS011;20142;28.494;-16.312;2023-02-01T00:58:14;4.97;;;0.30;;
33840;SDS011;20142;28.494;-16.312;2023-02-01T01:03:15;3.33;;;0.45;;
33840;SDS011;20142;28.494;-16.312;2023-02-01T01:08:20;4.05;;;0.30;;
33840;SDS011;20142;28.494;-16.312;2023-02-01T01:13:22;3.60;;;0.47;;
33840;SDS011;20142;28.494;-16.312;2023-02-01T01:18:24;3.25;;;0.40;;
33840;SDS011;20142;28.494;-16.312;2023-02-01T01:23:26;3.53;;;0.57;;
33840;SDS011;20142;28.494;-16.312;2023-02-01T01:28:28;2.88;;;0.65;;
33840;SDS011;20142;28.494;-16.312;2023-02-01T01:33:30;4.95;;;0.60;;
33840;SDS011;20142;28.494;-16.312;2023-02-01T01:38:31;3.15;;;0.63;;
33840;SDS011;20142;28.494;-16.312;2023-02-01T01:54:18;2.95;;;0.80;;
33840;SDS011;20142;28.494;-16.312;2023-02-01T01:59:34;4.88;;;0.80;;
33840;SDS011;20142;28.494;-16.312;2023-02-01T02:04:39;3.65;;;0.40;;
33840;SDS011;20142;28.494;-16.312;2023-02-01T02:09:41;2.58;;;0.50;;
33840;SDS011;20142;28.494;-16.312;2023-02-01T02:14:43;5.55;;;0.40;;
33840;SDS011;20142;28.494;-16.312;2023-02-01T02:19:49;1.77;;;0.43;;
33840;SDS011;20142;28.494;-16.312;2023-02-01T02:35:47;6.18;;;0.93;;
33840;SDS011;20142;28.494;-16.312;2023-02-01T02:47:03;3.90;;;0.40;;
33840;SDS011;20142;28.494;-16.312;2023-02-01T02:52:26;2.65;;;0.40;;
33840;SDS011;20142;28.494;-16.312;2023-02-01T02:57:47;2.67;;;0.47;;
33840;SDS011;20142;28.494;-16.312;2023-02-01T03:03:08;4.75;;;0.40;;
33840;SDS011;20142;28.494;-16.312;2023-02-01T03:13:51;3.22;;;0.40;;
33840;SDS011;20142;28.494;-16.312;2023-02-01T03:19:13;2.95;;;0.68;;
33840;SDS011;20142;28.494;-16.312;2023-02-01T03:24:31;2.30;;;0.32;;
33840;SDS011;20142;28.494;-16.312;2023-02-01T03:29:50;4.30;;;0.52;;
33840;SDS011;20142;28.494;-16.312;2023-02-01T03:35:46;4.72;;;0.57;;
33840;SDS011;20142;28.494;-16.312;2023-02-01T03:41:13;1.95;;;0.80;;
33840;SDS011;20142;28.494;-16.312;2023-02-01T03:46:45;4.07;;;0.50;;
33840;SDS011;20142;28.494;-16.312;2023-02-01T03:51:54;2.20;;;0.40;;
33840;SDS011;20142;28.494;-16.312;2023-02-01T03:57:01;2.65;;;0.30;;
33840;SDS011;20142;28.494;-16.312;2023-02-01T04:02:08;1.70;;;0.35;;
33840;SDS011;20142;28.494;-16.312;2023-02-01T04:07:09;3.13;;;0.45;;
33840;SDS011;20142;28.494;-16.312;2023-02-01T04:12:11;5.45;;;0.47;;
33840;SDS011;20142;28.494;-16.312;2023-02-01T04:17:12;2.13;;;0.50;;
33840;SDS011;20142;28.494;-16.312;2023-02-01T04:22:14;2.17;;;0.70;;
33840;SDS011;20142;28.494;-16.312;2023-02-01T04:27:16;2.28;;;0.57;;
33840;SDS011;20142;28.494;-16.312;2023-02-01T04:32:18;4.03;;;0.47;;
33840;SDS011;20142;28.494;-16.312;2023-02-01T04:37:22;2.50;;;0.45;;
33840;SDS011;20142;28.494;-16.312;2023-02-01T04:42:24;3.47;;;0.60;;
33840;SDS011;20142;28.494;-16.312;2023-02-01T04:47:26;3.25;;;0.30;;
33840;SDS011;20142;28.494;-16.312;2023-02-01T04:52:28;6.28;;;0.57;;
33840;SDS011;20142;28.494;-16.312;2023-02-01T04:57:29;3.78;;;0.50;;
33840;SDS011;20142;28.494;-16.312;2023-02-01T05:02:31;2.75;;;0.50;;
33840;SDS011;20142;28.494;-16.312;2023-02-01T05:07:33;7.90;;;0.65;;
33840;SDS011;20142;28.494;-16.312;2023-02-01T05:12:34;7.85;;;0.70;;
33840;SDS011;20142;28.494;-16.312;2023-02-01T05:17:54;2.25;;;0.38;;
33840;SDS011;20142;28.494;-16.312;2023-02-01T05:22:56;5.82;;;0.82;;
33840;SDS011;20142;28.494;-16.312;2023-02-01T05:27:58;6.47;;;0.43;;
33840;SDS011;20142;28.494;-16.312;2023-02-01T05:32:59;7.45;;;1.10;;
33840;SDS011;20142;28.494;-16.312;2023-02-01T05:38:02;4.70;;;0.60;;
33840;SDS011;20142;28.494;-16.312;2023-02-01T05:43:04;4.50;;;0.60;;
33840;SDS011;20142;28.494;-16.312;2023-02-01T05:48:05;5.50;;;0.60;;
33840;SDS011;20142;28.494;-16.312;2023-02-01T05:53:07;1.65;;;0.40;;
33840;SDS011;20142;28.494;-16.312;2023-02-01T05:58:08;2.28;;;0.40;;
33840;SDS011;20142;28.494;-16.312;2023-02-01T06:03:10;5.75;;;0.73;;
33840;SDS011;20142;28.494;-16.312;2023-02-01T06:08:12;2.85;;;0.63;;
33840;SDS011;20142;28.494;-16.312;2023-02-01T06:13:15;3.92;;;0.57;;
33840;SDS011;20142;28.494;-16.312;2023-02-01T06:18:16;7.43;;;0.65;;
33840;SDS011;20142;28.494;-16.312;2023-02-01T06:23:18;9.82;;;0.50;;
33840;SDS011;20142;28.494;-16.312;2023-02-01T06:28:20;2.15;;;0.47;;
33840;SDS011;20142;28.494;-16.312;2023-02-01T06:33:22;4.75;;;0.60;;
33840;SDS011;20142;28.494;-16.312;2023-02-01T06:38:24;4.32;;;0.40;;
33840;SDS011;20142;28.494;-16.312;2023-02-01T06:43:27;6.10;;;0.63;;
33840;SDS011;20142;28.494;-16.312;2023-02-01T06:48:29;3.88;;;0.90;;
33840;SDS011;20142;28.494;-16.312;2023-02-01T06:53:31;6.60;;;0.70;;
33840;SDS011;20142;28.494;-16.312;2023-02-01T06:58:33;4.72;;;0.77;;
33840;SDS011;20142;28.494;-16.312;2023-02-01T07:03:35;6.55;;;0.70;;
33840;SDS011;20142;28.494;-16.312;2023-02-01T07:08:38;5.68;;;0.80;;
33840;SDS011;20142;28.494;-16.312;2023-02-01T07:13:39;3.83;;;0.47;;
33840;SDS011;20142;28.494;-16.312;2023-02-01T07:18:41;9.23;;;0.80;;
33840;SDS011;20142;28.494;-16.312;2023-02-01T07:23:44;7.72;;;0.55;;
33840;SDS011;20142;28.494;-16.312;2023-02-01T07:28:46;6.70;;;0.60;;
33840;SDS011;20142;28.494;-16.312;2023-02-01T07:33:48;3.15;;;0.40;;
33840;SDS011;20142;28.494;-16.312;2023-02-01T07:38:53;5.95;;;0.63;;
33840;SDS011;20142;28.494;-16.312;2023-02-01T07:43:55;1.65;;;0.47;;
33840;SDS011;20142;28.494;-16.312;2023-02-01T07:48:57;4.38;;;0.75;;
33840;SDS011;20142;28.494;-16.312;2023-02-01T07:53:59;4.30;;;0.90;;
33840;SDS011;20142;28.494;-16.312;2023-02-01T07:59:00;5.55;;;0.60;;
33840;SDS011;20142;28.494;-16.312;2023-02-01T08:04:03;8.55;;;0.85;;
33840;SDS011;20142;28.494;-16.312;2023-02-01T08:09:05;5.85;;;0.90;;
33840;SDS011;20142;28.494;-16.312;2023-02-01T08:14:11;9.95;;;1.08;;
33840;SDS011;20142;28.494;-16.312;2023-02-01T08:19:13;5.25;;;0.80;;
33840;SDS011;20142;28.494;-16.312;2023-02-01T08:24:15;5.53;;;0.68;;
33840;SDS011;20142;28.494;-16.312;2023-02-01T08:29:16;2.85;;;0.57;;
33840;SDS011;20142;28.494;-16.312;2023-02-01T08:34:18;7.22;;;0.80;;
33840;SDS011;20142;28.494;-16.312;2023-02-01T08:39:20;2.72;;;0.70;;
33840;SDS011;20142;28.494;-16.312;2023-02-01T08:44:21;5.80;;;0.70;;
33840;SDS011;20142;28.494;-16.312;2023-02-01T08:49:23;7.63;;;0.80;;
33840;SDS011;20142;28.494;-16.312;2023-02-01T08:54:25;4.28;;;0.55;;
33840;SDS011;20142;28.494;-16.312;2023-02-01T08:59:26;4.72;;;0.75;;
33840;SDS011;20142;28.494;-16.312;2023-02-01T09:04:28;9.77;;;1.20;;
33840;SDS011;20142;28.494;-16.312;2023-02-01T09:09:30;5.35;;;1.30;;
33840;SDS011;20142;28.494;-16.312;2023-02-01T09:14:31;4.85;;;0.85;;
33840;SDS011;20142;28.494;-16.312;2023-02-01T09:19:33;9.95;;;0.73;;
33840;SDS011;20142;28.494;-16.312;2023-02-01T09:24:35;6.47;;;0.95;;
33840;SDS011;20142;28.494;-16.312;2023-02-01T09:29:36;4.80;;;0.63;;
33840;SDS011;20142;28.494;-16.312;2023-02-01T09:34:38;5.00;;;0.70;;
33840;SDS011;20142;28.494;-16.312;2023-02-01T09:39:40;4.95;;;0.90;;
33840;SDS011;20142;28.494;-16.312;2023-02-01T09:45:03;8.63;;;0.95;;
33840;SDS011;20142;28.494;-16.312;2023-02-01T09:50:33;7.80;;;0.82;;
33840;SDS011;20142;28.494;-16.312;2023-02-01T09:55:51;3.40;;;0.55;;
33840;SDS011;20142;28.494;-16.312;2023-02-01T10:01:02;7.68;;;0.80;;
33840;SDS011;20142;28.494;-16.312;2023-02-01T10:17:50;3.28;;;0.68;;
33840;SDS011;20142;28.494;-16.312;2023-02-01T10:28:54;9.18;;;0.80;;
33840;SDS011;20142;28.494;-16.312;2023-02-01T10:34:04;5.55;;;1.08;;
33840;SDS011;20142;28.494;-16.312;2023-02-01T10:39:22;5.75;;;0.50;;
33840;SDS011;20142;28.494;-16.312;2023-02-01T10:44:26;2.55;;;0.52;;
33840;SDS011;20142;28.494;-16.312;2023-02-01T10:49:34;3.22;;;0.70;;
33840;SDS011;20142;28.494;-16.312;2023-02-01T10:55:26;6.43;;;0.50;;
33840;SDS011;20142;28.494;-16.312;2023-02-01T11:00:44;4.45;;;0.60;;
33840;SDS011;20142;28.494;-16.312;2023-02-01T11:05:57;2.90;;;0.40;;
33840;SDS011;20142;28.494;-16.312;2023-02-01T11:11:00;3.17;;;0.50;;
33840;SDS011;20142;28.494;-16.312;2023-02-01T11:16:06;4.40;;;0.68;;
33840;SDS011;20142;28.494;-16.312;2023-02-01T11:21:12;7.10;;;0.80;;
33840;SDS011;20142;28.494;-16.312;2023-02-01T11:26:23;4.05;;;0.70;;
33840;SDS011;20142;28.494;-16.312;2023-02-01T11:31:27;7.93;;;0.82;;
33840;SDS011;20142;28.494;-16.312;2023-02-01T11:36:30;3.47;;;0.50;;
33840;SDS011;20142;28.494;-16.312;2023-02-01T11:41:35;4.22;;;0.90;;
33840;SDS011;20142;28.494;-16.312;2023-02-01T11:52:41;2.85;;;0.50;;
33840;SDS011;20142;28.494;-16.312;2023-02-01T12:03:56;5.07;;;1.10;;
33840;SDS011;20142;28.494;-16.312;2023-02-01T12:25:54;3.63;;;0.90;;
33840;SDS011;20142;28.494;-16.312;2023-02-01T12:37:09;4.93;;;0.70;;
33840;SDS011;20142;28.494;-16.312;2023-02-01T12:42:33;6.28;;;0.90;;
33840;SDS011;20142;28.494;-16.312;2023-02-01T12:47:47;2.38;;;0.52;;
33840;SDS011;20142;28.494;-16.312;2023-02-01T12:52:57;6.53;;;0.70;;
33840;SDS011;20142;28.494;-16.312;2023-02-01T12:58:38;6.53;;;0.68;;
33840;SDS011;20142;28.494;-16.312;2023-02-01T13:03:56;3.60;;;0.55;;
33840;SDS011;20142;28.494;-16.312;2023-02-01T13:09:47;5.40;;;0.90;;
33840;SDS011;20142;28.494;-16.312;2023-02-01T13:14:54;6.97;;;0.77;;
33840;SDS011;20142;28.494;-16.312;2023-02-01T13:25:50;4.38;;;0.82;;
33840;SDS011;20142;28.494;-16.312;2023-02-01T13:42:02;2.53;;;0.63;;
33840;SDS011;20142;28.494;-16.312;2023-02-01T13:47:23;5.63;;;0.45;;
33840;SDS011;20142;28.494;-16.312;2023-02-01T13:52:35;5.03;;;0.60;;
33840;SDS011;20142;28.494;-16.312;2023-02-01T13:57:44;2.72;;;0.32;;
33840;SDS011;20142;28.494;-16.312;2023-02-01T14:02:49;6.35;;;1.15;;
33840;SDS011;20142;28.494;-16.312;2023-02-01T14:13:20;2.80;;;0.50;;
33840;SDS011;20142;28.494;-16.312;2023-02-01T14:23:48;3.53;;;0.73;;
33840;SDS011;20142;28.494;-16.312;2023-02-01T14:34:36;4.47;;;0.63;;
33840;SDS011;20142;28.494;-16.312;2023-02-01T14:40:00;4.32;;;0.77;;
33840;SDS011;20142;28.494;-16.312;2023-02-01T14:50:30;7.55;;;1.08;;
33840;SDS011;20142;28.494;-16.312;2023-02-01T15:07:05;7.55;;;0.93;;
33840;SDS011;20142;28.494;-16.312;2023-02-01T15:17:17;5.15;;;1.00;;
33840;SDS011;20142;28.494;-16.312;2023-02-01T15:22:28;2.97;;;0.70;;
33840;SDS011;20142;28.494;-16.312;2023-02-01T15:27:32;9.45;;;1.02;;
33840;SDS011;20142;28.494;-16.312;2023-02-01T15:32:35;5.40;;;0.80;;
33840;SDS011;20142;28.494;-16.312;2023-02-01T15:37:39;2.63;;;0.82;;
33840;SDS011;20142;28.494;-16.312;2023-02-01T15:42:54;3.22;;;0.80;;
33840;SDS011;20142;28.494;-16.312;2023-02-01T15:47:59;3.90;;;0.82;;
33840;SDS011;20142;28.494;-16.312;2023-02-01T15:53:01;4.53;;;0.55;;
33840;SDS011;20142;28.494;-16.312;2023-02-01T15:58:07;2.72;;;0.60;;
33840;SDS011;20142;28.494;-16.312;2023-02-01T16:03:34;9.57;;;0.93;;
33840;SDS011;20142;28.494;-16.312;2023-02-01T16:08:49;5.03;;;0.70;;
33840;SDS011;20142;28.494;-16.312;2023-02-01T16:13:56;5.30;;;1.00;;
33840;SDS011;20142;28.494;-16.312;2023-02-01T16:18:59;4.63;;;0.70;;
33840;SDS011;20142;28.494;-16.312;2023-02-01T16:24:01;3.78;;;1.13;;
33840;SDS011;20142;28.494;-16.312;2023-02-01T16:29:04;7.15;;;1.13;;
33840;SDS011;20142;28.494;-16.312;2023-02-01T16:34:10;3.63;;;0.90;;
33840;SDS011;20142;28.494;-16.312;2023-02-01T16:39:19;3.55;;;1.00;;
33840;SDS011;20142;28.494;-16.312;2023-02-01T16:44:21;3.45;;;0.60;;
33840;SDS011;20142;28.494;-16.312;2023-02-01T16:49:23;4.13;;;0.82;;
33840;SDS011;20142;28.494;-16.312;2023-02-01T16:54:26;4.07;;;0.88;;
33840;SDS011;20142;28.494;-16.312;2023-02-01T16:59:28;4.57;;;0.85;;
33840;SDS011;20142;28.494;-16.312;2023-02-01T17:04:29;4.15;;;0.80;;
33840;SDS011;20142;28.494;-16.312;2023-02-01T17:09:31;3.85;;;1.00;;
33840;SDS011;20142;28.494;-16.312;2023-02-01T17:14:35;7.00;;;1.35;;
33840;SDS011;20142;28.494;-16.312;2023-02-01T17:19:47;4.80;;;1.00;;
33840;SDS011;20142;28.494;-16.312;2023-02-01T17:24:53;6.40;;;0.85;;
33840;SDS011;20142;28.494;-16.312;2023-02-01T17:29:55;4.43;;;1.33;;
33840;SDS011;20142;28.494;-16.312;2023-02-01T17:34:56;4.90;;;0.77;;
33840;SDS011;20142;28.494;-16.312;2023-02-01T17:39:58;5.40;;;0.93;;
33840;SDS011;20142;28.494;-16.312;2023-02-01T17:45:02;5.18;;;0.80;;
33840;SDS011;20142;28.494;-16.312;2023-02-01T17:50:35;7.00;;;0.90;;
33840;SDS011;20142;28.494;-16.312;2023-02-01T17:55:43;4.45;;;0.80;;
33840;SDS011;20142;28.494;-16.312;2023-02-01T18:00:46;4.28;;;0.90;;
33840;SDS011;20142;28.494;-16.312;2023-02-01T18:05:49;3.25;;;0.90;;
33840;SDS011;20142;28.494;-16.312;2023-02-01T18:10:57;6.03;;;1.08;;
33840;SDS011;20142;28.494;-16.312;2023-02-01T18:16:00;6.10;;;1.33;;
33840;SDS011;20142;28.494;-16.312;2023-02-01T18:21:04;4.28;;;0.80;;
33840;SDS011;20142;28.494;-16.312;2023-02-01T18:26:07;7.07;;;1.20;;
33840;SDS011;20142;28.494;-16.312;2023-02-01T18:36:23;7.45;;;1.10;;
33840;SDS011;20142;28.494;-16.312;2023-02-01T18:41:25;5.32;;;0.77;;
33840;SDS011;20142;28.494;-16.312;2023-02-01T18:46:27;10.57;;;0.80;;
33840;SDS011;20142;28.494;-16.312;2023-02-01T18:51:29;5.68;;;0.98;;
33840;SDS011;20142;28.494;-16.312;2023-02-01T18:56:30;3.35;;;0.65;;
33840;SDS011;20142;28.494;-16.312;2023-02-01T19:01:32;7.25;;;0.73;;
33840;SDS011;20142;28.494;-16.312;2023-02-01T19:06:34;11.00;;;1.25;;
33840;SDS011;20142;28.494;-16.312;2023-02-01T19:11:36;10.45;;;1.40;;
33840;SDS011;20142;28.494;-16.312;2023-02-01T19:16:37;3.13;;;0.75;;
33840;SDS011;20142;28.494;-16.312;2023-02-01T19:21:39;4.50;;;0.95;;
33840;SDS011;20142;28.494;-16.312;2023-02-01T19:26:41;3.08;;;0.60;;
33840;SDS011;20142;28.494;-16.312;2023-02-01T19:31:43;6.35;;;1.20;;
33840;SDS011;20142;28.494;-16.312;2023-02-01T19:36:47;5.93;;;1.10;;
33840;SDS011;20142;28.494;-16.312;2023-02-01T19:41:50;5.47;;;1.45;;
33840;SDS011;20142;28.494;-16.312;2023-02-01T19:46:52;6.38;;;1.65;;
33840;SDS011;20142;28.494;-16.312;2023-02-01T19:51:54;7.28;;;1.40;;
33840;SDS011;20142;28.494;-16.312;2023-02-01T19:56:57;6.60;;;1.35;;
33840;SDS011;20142;28.494;-16.312;2023-02-01T20:01:59;4.43;;;1.10;;
33840;SDS011;20142;28.494;-16.312;2023-02-01T20:07:00;7.20;;;1.13;;
33840;SDS011;20142;28.494;-16.312;2023-02-01T20:12:02;7.82;;;1.73;;
33840;SDS011;20142;28.494;-16.312;2023-02-01T20:17:05;5.72;;;1.50;;
33840;SDS011;20142;28.494;-16.312;2023-02-01T20:22:08;10.20;;;1.33;;
33840;SDS011;20142;28.494;-16.312;2023-02-01T20:27:10;10.07;;;1.33;;
33840;SDS011;20142;28.494;-16.312;2023-02-01T20:32:12;4.90;;;1.13;;
33840;SDS011;20142;28.494;-16.312;2023-02-01T20:37:14;6.32;;;1.48;;
33840;SDS011;20142;28.494;-16.312;2023-02-01T20:42:16;3.72;;;0.85;;
33840;SDS011;20142;28.494;-16.312;2023-02-01T20:47:17;3.53;;;0.90;;
33840;SDS011;20142;28.494;-16.312;2023-02-01T20:52:19;6.70;;;0.90;;
33840;SDS011;20142;28.494;-16.312;2023-02-01T20:57:21;2.10;;;0.70;;
33840;SDS011;20142;28.494;-16.312;2023-02-01T21:02:22;10.32;;;1.02;;
33840;SDS011;20142;28.494;-16.312;2023-02-01T21:07:24;5.03;;;0.93;;
33840;SDS011;20142;28.494;-16.312;2023-02-01T21:12:26;5.60;;;1.52;;
33840;SDS011;20142;28.494;-16.312;2023-02-01T21:17:31;8.82;;;2.30;;
33840;SDS011;20142;28.494;-16.312;2023-02-01T21:22:33;8.88;;;1.95;;
33840;SDS011;20142;28.494;-16.312;2023-02-01T21:27:34;7.15;;;1.58;;
33840;SDS011;20142;28.494;-16.312;2023-02-01T21:32:36;5.20;;;1.63;;
33840;SDS011;20142;28.494;-16.312;2023-02-01T21:37:38;5.85;;;1.50;;
33840;SDS011;20142;28.494;-16.312;2023-02-01T21:42:39;8.13;;;1.85;;
33840;SDS011;20142;28.494;-16.312;2023-02-01T21:47:51;6.43;;;1.88;;
33840;SDS011;20142;28.494;-16.312;2023-02-01T21:52:54;8.93;;;1.50;;
33840;SDS011;20142;28.494;-16.312;2023-02-01T21:57:56;7.53;;;1.90;;
33840;SDS011;20142;28.494;-16.312;2023-02-01T22:02:57;5.25;;;1.70;;
33840;SDS011;20142;28.494;-16.312;2023-02-01T22:08:01;9.23;;;2.42;;
33840;SDS011;20142;28.494;-16.312;2023-02-01T22:13:03;6.90;;;2.30;;
33840;SDS011;20142;28.494;-16.312;2023-02-01T22:18:05;8.43;;;1.77;;
33840;SDS011;20142;28.494;-16.312;2023-02-01T22:23:08;5.45;;;1.70;;
33840;SDS011;20142;28.494;-16.312;2023-02-01T22:28:10;5.32;;;2.00;;
33840;SDS011;20142;28.494;-16.312;2023-02-01T22:33:11;4.95;;;1.83;;
33840;SDS011;20142;28.494;-16.312;2023-02-01T22:38:13;5.85;;;2.30;;
33840;SDS011;20142;28.494;-16.312;2023-02-01T22:43:16;4.20;;;1.30;;
33840;SDS011;20142;28.494;-16.312;2023-02-01T22:48:18;7.20;;;1.67;;
33840;SDS011;20142;28.494;-16.312;2023-02-01T22:53:20;8.75;;;2.97;;
33840;SDS011;20142;28.494;-16.312;2023-02-01T22:58:21;8.75;;;3.38;;
33840;SDS011;20142;28.494;-16.312;2023-02-01T23:03:23;8.43;;;2.72;;
33840;SDS011;20142;28.494;-16.312;2023-02-01T23:08:25;10.45;;;4.20;;
33840;SDS011;20142;28.494;-16.312;2023-02-01T23:13:27;7.97;;;3.40;;
33840;SDS011;20142;28.494;-16.312;2023-02-01T23:18:29;5.78;;;3.10;;
33840;SDS011;20142;28.494;-16.312;2023-02-01T23:23:30;7.60;;;3.80;;
33840;SDS011;20142;28.494;-16.312;2023-02-01T23:28:32;9.82;;;2.70;;
33840;SDS011;20142;28.494;-16.312;2023-02-01T23:33:35;7.70;;;3.08;;
33840;SDS011;20142;28.494;-16.312;2023-02-01T23:38:37;8.63;;;4.13;;
33840;SDS011;20142;28.494;-16.312;2023-02-01T23:43:39;11.40;;;3.63;;
33840;SDS011;20142;28.494;-16.312;2023-02-01T23:49:00;15.52;;;3.45;;
33840;SDS011;20142;28.494;-16.312;2023-02-01T23:54:05;6.47;;;3.20;;
33840;SDS011;20142;28.494;-16.312;2023-02-01T23:59:13;11.00;;;3.55;;
